createdAt,value
2018-01-07T00:00:03.772Z,866.74
2018-01-07T00:01:03.801Z,866.79
2018-01-07T00:02:03.827Z,866.81
2018-01-07T00:03:03.859Z,866.86
2018-01-07T00:04:03.900Z,866.76
2018-01-07T00:05:03.949Z,866.77
2018-01-07T00:06:03.963Z,866.72
2018-01-07T00:07:03.989Z,866.77
2018-01-07T00:08:04.016Z,866.79
2018-01-07T00:09:04.041Z,866.82
2018-01-07T00:10:04.079Z,866.89
2018-01-07T00:11:04.108Z,866.92
2018-01-07T00:12:04.154Z,866.95
2018-01-07T00:13:04.182Z,866.95
2018-01-07T00:14:04.210Z,866.96
2018-01-07T00:15:04.250Z,866.96
2018-01-07T00:16:04.265Z,866.97
2018-01-07T00:17:04.298Z,867.00
2018-01-07T00:18:04.337Z,867.05
2018-01-07T00:19:04.352Z,867.08
2018-01-07T00:20:04.395Z,867.13
2018-01-07T00:21:04.436Z,867.05
2018-01-07T00:22:04.457Z,867.01
2018-01-07T00:23:04.491Z,867.05
2018-01-07T00:24:04.515Z,867.02
2018-01-07T00:25:04.556Z,867.04
2018-01-07T00:26:04.577Z,867.08
2018-01-07T00:27:04.606Z,867.04
2018-01-07T00:28:04.654Z,867.08
2018-01-07T00:29:04.685Z,867.08
2018-01-07T00:30:04.705Z,867.17
2018-01-07T00:31:04.743Z,867.17
2018-01-07T00:32:04.776Z,867.18
2018-01-07T00:33:04.807Z,867.17
2018-01-07T00:34:04.840Z,867.17
2018-01-07T00:35:04.875Z,867.09
2018-01-07T00:36:04.901Z,867.18
2018-01-07T00:37:04.938Z,867.19
2018-01-07T00:38:04.967Z,867.21
2018-01-07T00:39:04.993Z,867.24
2018-01-07T00:40:05.027Z,867.24
2018-01-07T00:41:05.052Z,867.29
2018-01-07T00:42:05.088Z,867.28
2018-01-07T00:43:05.111Z,867.28
2018-01-07T00:44:05.163Z,867.28
2018-01-07T00:45:05.180Z,867.27
2018-01-07T00:46:05.201Z,867.27
2018-01-07T00:47:05.251Z,867.24
2018-01-07T00:48:05.271Z,867.27
2018-01-07T00:49:05.299Z,867.28
2018-01-07T00:50:05.341Z,867.29
2018-01-07T00:51:05.371Z,867.26
2018-01-07T00:52:05.392Z,867.27
2018-01-07T00:53:05.434Z,867.31
2018-01-07T00:54:05.459Z,867.31
2018-01-07T00:55:05.483Z,867.30
2018-01-07T00:56:05.533Z,867.31
2018-01-07T00:57:05.555Z,867.29
2018-01-07T00:58:05.644Z,867.32
2018-01-07T00:59:05.620Z,867.34
2018-01-07T01:00:05.661Z,867.32
2018-01-07T01:01:05.671Z,867.35
2018-01-07T01:02:05.708Z,867.39
2018-01-07T01:03:05.748Z,867.44
2018-01-07T01:04:05.777Z,867.47
2018-01-07T01:05:05.800Z,867.44
2018-01-07T01:06:05.839Z,867.51
2018-01-07T01:07:05.873Z,867.49
2018-01-07T01:08:05.906Z,867.46
2018-01-07T01:09:05.941Z,867.51
2018-01-07T01:10:05.956Z,867.43
2018-01-07T01:11:05.987Z,867.48
2018-01-07T01:12:06.025Z,867.45
2018-01-07T01:13:06.064Z,867.45
2018-01-07T01:14:06.093Z,867.50
2018-01-07T01:15:06.126Z,867.50
2018-01-07T01:16:06.157Z,867.53
2018-01-07T01:17:06.185Z,867.56
2018-01-07T01:18:06.208Z,867.57
2018-01-07T01:19:06.255Z,867.50
2018-01-07T01:20:06.272Z,867.49
2018-01-07T01:21:06.312Z,867.51
2018-01-07T01:22:06.356Z,867.59
2018-01-07T01:23:06.373Z,867.57
2018-01-07T01:24:06.394Z,867.62
2018-01-07T01:25:06.439Z,867.59
2018-01-07T01:26:06.456Z,867.59
2018-01-07T01:27:06.496Z,867.55
2018-01-07T01:28:06.534Z,867.59
2018-01-07T01:29:06.556Z,867.59
2018-01-07T01:30:06.595Z,867.64
2018-01-07T01:31:06.628Z,867.68
2018-01-07T01:32:06.663Z,867.66
2018-01-07T01:33:06.692Z,867.67
2018-01-07T01:34:06.727Z,867.69
2018-01-07T01:35:06.742Z,867.72
2018-01-07T01:36:06.796Z,867.73
2018-01-07T01:37:06.818Z,867.73
2018-01-07T01:38:06.835Z,867.76
2018-01-07T01:39:06.883Z,867.75
2018-01-07T01:40:06.957Z,867.75
2018-01-07T01:41:06.926Z,867.73
2018-01-07T01:42:06.984Z,867.74
2018-01-07T01:43:06.999Z,867.78
2018-01-07T01:44:07.037Z,867.79
2018-01-07T01:45:07.056Z,867.84
2018-01-07T01:46:07.084Z,867.83
2018-01-07T01:47:07.109Z,867.86
2018-01-07T01:48:07.160Z,867.89
2018-01-07T01:49:07.188Z,867.89
2018-01-07T01:50:07.220Z,867.86
2018-01-07T01:51:07.341Z,867.86
2018-01-07T01:52:07.284Z,867.87
2018-01-07T01:53:07.302Z,867.88
2018-01-07T01:54:07.339Z,867.96
2018-01-07T01:55:07.379Z,867.96
2018-01-07T01:56:07.402Z,867.92
2018-01-07T01:57:07.440Z,867.87
2018-01-07T01:58:07.477Z,867.95
2018-01-07T01:59:07.499Z,867.97
2018-01-07T02:00:07.519Z,867.97
2018-01-07T02:01:07.567Z,868.00
2018-01-07T02:02:07.583Z,868.03
2018-01-07T02:03:07.621Z,868.07
2018-01-07T02:04:07.641Z,868.09
2018-01-07T02:05:07.690Z,868.10
2018-01-07T02:06:07.718Z,868.13
2018-01-07T02:07:07.743Z,868.15
2018-01-07T02:08:07.783Z,868.15
2018-01-07T02:09:07.810Z,868.17
2018-01-07T02:10:07.844Z,868.21
2018-01-07T02:11:07.883Z,868.16
2018-01-07T02:12:07.900Z,868.20
2018-01-07T02:13:07.931Z,868.22
2018-01-07T02:14:07.979Z,868.22
2018-01-07T02:15:07.990Z,868.24
2018-01-07T02:16:08.022Z,868.28
2018-01-07T02:17:08.054Z,868.27
2018-01-07T02:18:08.087Z,868.28
2018-01-07T02:19:08.116Z,868.33
2018-01-07T02:20:08.150Z,868.27
2018-01-07T02:21:08.197Z,868.25
2018-01-07T02:22:08.225Z,868.25
2018-01-07T02:23:08.261Z,868.26
2018-01-07T02:24:08.277Z,868.34
2018-01-07T02:25:08.303Z,868.30
2018-01-07T02:26:08.343Z,868.33
2018-01-07T02:27:08.372Z,868.33
2018-01-07T02:28:08.396Z,868.38
2018-01-07T02:29:08.429Z,868.40
2018-01-07T02:30:08.478Z,868.46
2018-01-07T02:31:08.480Z,868.43
2018-01-07T02:32:08.510Z,868.40
2018-01-07T02:33:08.545Z,868.36
2018-01-07T02:34:08.573Z,868.35
2018-01-07T02:35:08.613Z,868.41
2018-01-07T02:36:08.646Z,868.38
2018-01-07T02:37:08.686Z,868.38
2018-01-07T02:38:08.692Z,868.41
2018-01-07T02:39:08.726Z,868.38
2018-01-07T02:40:08.774Z,868.41
2018-01-07T02:41:08.787Z,868.48
2018-01-07T02:42:08.820Z,868.49
2018-01-07T02:43:08.869Z,868.53
2018-01-07T02:44:08.876Z,868.51
2018-01-07T02:45:08.906Z,868.50
2018-01-07T02:46:08.953Z,868.45
2018-01-07T02:47:08.967Z,868.47
2018-01-07T02:48:09.003Z,868.45
2018-01-07T02:49:09.044Z,868.44
2018-01-07T02:50:09.134Z,868.43
2018-01-07T02:51:09.122Z,868.52
2018-01-07T02:52:09.139Z,868.58
2018-01-07T02:53:09.177Z,868.60
2018-01-07T02:54:09.191Z,868.65
2018-01-07T02:55:09.816Z,868.66
2018-01-07T02:56:09.268Z,868.69
2018-01-07T02:57:09.295Z,868.69
2018-01-07T02:58:09.306Z,868.75
2018-01-07T02:59:09.370Z,868.66
2018-01-07T03:00:09.409Z,868.70
2018-01-07T03:01:09.417Z,868.65
2018-01-07T03:02:09.488Z,868.67
2018-01-07T03:03:09.488Z,868.67
2018-01-07T03:04:09.489Z,868.67
2018-01-07T03:05:09.842Z,868.67
2018-01-07T03:06:09.569Z,868.69
2018-01-07T03:07:09.596Z,868.67
2018-01-07T03:08:09.645Z,868.74
2018-01-07T03:09:09.655Z,868.83
2018-01-07T03:10:09.689Z,868.89
2018-01-07T03:11:09.735Z,868.87
2018-01-07T03:12:09.761Z,868.88
2018-01-07T03:13:09.781Z,868.91
2018-01-07T03:14:09.834Z,868.92
2018-01-07T03:15:09.833Z,868.98
2018-01-07T03:16:09.871Z,868.93
2018-01-07T03:17:09.948Z,868.93
2018-01-07T03:18:09.931Z,868.91
2018-01-07T03:19:09.961Z,868.89
2018-01-07T03:20:09.978Z,868.94
2018-01-07T03:21:10.012Z,868.96
2018-01-07T03:22:10.062Z,868.95
2018-01-07T03:23:10.114Z,868.95
2018-01-07T03:24:10.135Z,868.91
2018-01-07T03:25:10.141Z,868.93
2018-01-07T03:26:10.159Z,868.93
2018-01-07T03:27:10.208Z,868.91
2018-01-07T03:28:10.241Z,868.96
2018-01-07T03:29:10.258Z,868.93
2018-01-07T03:30:10.308Z,868.92
2018-01-07T03:31:10.359Z,868.90
2018-01-07T03:32:10.461Z,868.90
2018-01-07T03:33:10.430Z,868.95
2018-01-07T03:34:10.469Z,868.95
2018-01-07T03:35:10.462Z,868.96
2018-01-07T03:36:10.570Z,868.91
2018-01-07T03:37:10.576Z,868.96
2018-01-07T03:38:10.589Z,868.97
2018-01-07T03:39:10.619Z,868.97
2018-01-07T03:40:10.683Z,868.99
2018-01-07T03:41:10.680Z,869.01
2018-01-07T03:42:10.712Z,869.00
2018-01-07T03:43:10.752Z,868.98
2018-01-07T03:44:10.770Z,868.97
2018-01-07T03:45:10.803Z,869.00
2018-01-07T03:46:10.841Z,868.99
2018-01-07T03:47:10.872Z,869.00
2018-01-07T03:48:10.892Z,868.99
2018-01-07T03:49:10.942Z,868.99
2018-01-07T03:50:10.942Z,869.00
2018-01-07T03:51:10.957Z,869.02
2018-01-07T03:52:11.003Z,868.95
2018-01-07T03:53:11.297Z,869.01
2018-01-07T03:54:11.062Z,868.95
2018-01-07T03:55:12.260Z,868.94
2018-01-07T03:56:11.146Z,868.95
2018-01-07T03:57:11.174Z,869.00
2018-01-07T03:58:11.194Z,869.00
2018-01-07T03:59:11.250Z,868.97
2018-01-07T04:00:11.275Z,869.03
2018-01-07T04:01:11.312Z,869.01
2018-01-07T04:02:11.343Z,869.01
2018-01-07T04:03:11.360Z,868.97
2018-01-07T04:04:11.405Z,869.06
2018-01-07T04:05:11.445Z,869.00
2018-01-07T04:06:11.463Z,869.05
2018-01-07T04:07:11.507Z,869.07
2018-01-07T04:08:11.534Z,869.03
2018-01-07T04:09:11.552Z,869.05
2018-01-07T04:10:11.595Z,869.03
2018-01-07T04:11:11.625Z,869.01
2018-01-07T04:12:11.677Z,869.02
2018-01-07T04:13:11.688Z,868.99
2018-01-07T04:14:11.720Z,868.92
2018-01-07T04:15:12.066Z,868.97
2018-01-07T04:16:11.779Z,868.97
2018-01-07T04:17:11.797Z,868.99
2018-01-07T04:18:11.845Z,868.97
2018-01-07T04:19:11.865Z,868.93
2018-01-07T04:20:12.299Z,868.98
2018-01-07T04:21:11.931Z,868.96
2018-01-07T04:22:11.967Z,868.96
2018-01-07T04:23:12.001Z,868.99
2018-01-07T04:24:12.028Z,868.94
2018-01-07T04:25:12.070Z,868.89
2018-01-07T04:26:12.088Z,868.84
2018-01-07T04:27:12.134Z,868.82
2018-01-07T04:28:12.149Z,868.82
2018-01-07T04:29:12.168Z,868.80
2018-01-07T04:30:12.198Z,868.87
2018-01-07T04:31:12.262Z,868.92
2018-01-07T04:32:12.255Z,868.88
2018-01-07T04:33:12.335Z,868.91
2018-01-07T04:34:12.335Z,868.84
2018-01-07T04:35:12.374Z,868.81
2018-01-07T04:36:12.380Z,868.76
2018-01-07T04:37:12.447Z,868.75
2018-01-07T04:38:12.766Z,868.72
2018-01-07T04:39:12.500Z,868.73
2018-01-07T04:40:12.507Z,868.71
2018-01-07T04:41:12.545Z,868.70
2018-01-07T04:42:12.577Z,868.65
2018-01-07T04:43:12.886Z,868.61
2018-01-07T04:44:12.650Z,868.59
2018-01-07T04:45:12.664Z,868.65
2018-01-07T04:46:12.723Z,868.72
2018-01-07T04:47:12.762Z,868.72
2018-01-07T04:48:12.779Z,868.72
2018-01-07T04:49:12.797Z,868.72
2018-01-07T04:50:12.840Z,868.68
2018-01-07T04:51:12.866Z,868.70
2018-01-07T04:52:12.898Z,868.70
2018-01-07T04:53:12.937Z,868.71
2018-01-07T04:54:12.961Z,868.69
2018-01-07T04:55:13.267Z,868.65
2018-01-07T04:56:13.035Z,868.68
2018-01-07T04:57:13.059Z,868.64
2018-01-07T04:58:13.095Z,868.59
2018-01-07T04:59:13.129Z,868.54
2018-01-07T05:00:13.167Z,868.51
2018-01-07T05:01:13.188Z,868.60
2018-01-07T05:02:13.196Z,868.58
2018-01-07T05:03:13.238Z,868.69
2018-01-07T05:04:13.278Z,868.68
2018-01-07T05:05:13.316Z,868.62
2018-01-07T05:06:13.352Z,868.60
2018-01-07T05:07:13.358Z,868.55
2018-01-07T05:08:13.396Z,868.55
2018-01-07T05:09:13.451Z,868.57
2018-01-07T05:10:13.468Z,868.66
2018-01-07T05:11:13.498Z,868.62
2018-01-07T05:12:13.530Z,868.63
2018-01-07T05:13:13.554Z,868.61
2018-01-07T05:14:13.603Z,868.57
2018-01-07T05:15:13.631Z,868.53
2018-01-07T05:16:13.667Z,868.49
2018-01-07T05:17:13.903Z,868.43
2018-01-07T05:18:13.729Z,868.46
2018-01-07T05:19:13.752Z,868.41
2018-01-07T05:20:13.765Z,868.40
2018-01-07T05:21:13.805Z,868.33
2018-01-07T05:22:13.859Z,868.30
2018-01-07T05:23:13.868Z,868.28
2018-01-07T05:24:13.901Z,868.25
2018-01-07T05:25:13.954Z,868.22
2018-01-07T05:26:13.966Z,868.19
2018-01-07T05:27:14.005Z,868.17
2018-01-07T05:28:14.035Z,868.17
2018-01-07T05:29:14.070Z,868.13
2018-01-07T05:30:14.140Z,868.16
2018-01-07T05:31:14.118Z,868.15
2018-01-07T05:32:14.161Z,868.17
2018-01-07T05:33:14.481Z,868.16
2018-01-07T05:34:14.246Z,868.20
2018-01-07T05:35:14.264Z,868.15
2018-01-07T05:36:14.286Z,868.15
2018-01-07T05:37:14.308Z,868.10
2018-01-07T05:38:14.355Z,868.11
2018-01-07T05:39:14.392Z,868.15
2018-01-07T05:40:14.405Z,868.11
2018-01-07T05:42:14.497Z,868.07
2018-01-07T05:43:14.513Z,868.16
2018-01-07T05:44:14.535Z,868.19
2018-01-07T05:45:14.583Z,868.12
2018-01-07T05:46:14.595Z,868.01
2018-01-07T05:47:14.719Z,868.01
2018-01-07T05:48:14.663Z,867.99
2018-01-07T05:49:14.707Z,868.00
2018-01-07T05:50:14.731Z,868.01
2018-01-07T05:51:14.778Z,868.01
2018-01-07T05:52:14.996Z,868.02
2018-01-07T05:53:14.858Z,868.02
2018-01-07T05:54:14.858Z,868.02
2018-01-07T05:55:14.901Z,867.96
2018-01-07T05:56:14.950Z,867.90
2018-01-07T05:57:14.955Z,867.87
2018-01-07T05:58:14.998Z,867.87
2018-01-07T05:59:15.043Z,867.87
2018-01-07T06:00:15.065Z,867.87
2018-01-07T06:01:15.098Z,867.90
2018-01-07T06:02:15.139Z,867.91
2018-01-07T06:03:15.242Z,867.89
2018-01-07T06:04:15.253Z,867.82
2018-01-07T06:05:15.243Z,867.83
2018-01-07T06:06:15.279Z,867.82
2018-01-07T06:08:15.401Z,867.84
2018-01-07T06:09:15.457Z,867.86
2018-01-07T06:10:15.427Z,867.87
2018-01-07T06:11:15.436Z,867.81
2018-01-07T06:12:15.476Z,867.80
2018-01-07T06:13:15.530Z,867.76
2018-01-07T06:14:15.548Z,867.76
2018-01-07T06:15:15.588Z,867.78
2018-01-07T06:16:15.621Z,867.72
2018-01-07T06:17:15.646Z,867.70
2018-01-07T06:18:15.693Z,867.61
2018-01-07T06:19:15.719Z,867.66
2018-01-07T06:20:15.737Z,867.69
2018-01-07T06:21:15.774Z,867.65
2018-01-07T06:22:15.810Z,867.60
2018-01-07T06:23:15.869Z,867.62
2018-01-07T06:24:15.901Z,867.58
2018-01-07T06:25:15.920Z,867.58
2018-01-07T06:26:15.977Z,867.62
2018-01-07T06:27:16.035Z,867.56
2018-01-07T06:28:16.036Z,867.51
2018-01-07T06:29:16.063Z,867.53
2018-01-07T06:30:16.098Z,867.52
2018-01-07T06:31:16.153Z,867.49
2018-01-07T06:32:16.385Z,867.53
2018-01-07T06:33:16.215Z,867.56
2018-01-07T06:34:16.256Z,867.51
2018-01-07T06:35:16.291Z,867.54
2018-01-07T06:36:16.314Z,867.50
2018-01-07T06:37:16.347Z,867.49
2018-01-07T06:38:16.393Z,867.47
2018-01-07T06:39:16.441Z,867.45
2018-01-07T06:40:16.459Z,867.50
2018-01-07T06:41:16.493Z,867.45
2018-01-07T06:42:16.553Z,867.37
2018-01-07T06:43:16.578Z,867.39
2018-01-07T06:44:16.608Z,867.43
2018-01-07T06:45:16.654Z,867.37
2018-01-07T06:46:16.669Z,867.42
2018-01-07T06:47:16.711Z,867.45
2018-01-07T06:48:16.750Z,867.41
2018-01-07T06:49:16.777Z,867.36
2018-01-07T06:50:16.815Z,867.31
2018-01-07T06:51:16.841Z,867.32
2018-01-07T06:52:16.885Z,867.30
2018-01-07T06:53:16.916Z,867.24
2018-01-07T06:54:16.943Z,867.29
2018-01-07T06:55:17.007Z,867.24
2018-01-07T06:56:17.020Z,867.26
2018-01-07T06:57:17.049Z,867.26
2018-01-07T06:58:17.092Z,867.25
2018-01-07T06:59:17.125Z,867.20
2018-01-07T07:00:17.173Z,867.19
2018-01-07T07:01:17.210Z,867.18
2018-01-07T07:02:17.236Z,867.22
2018-01-07T07:03:17.267Z,867.22
2018-01-07T07:04:17.320Z,867.17
2018-01-07T07:05:17.348Z,867.14
2018-01-07T07:06:17.369Z,867.10
2018-01-07T07:07:17.406Z,867.06
2018-01-07T07:08:17.447Z,867.05
2018-01-07T07:09:17.462Z,867.03
2018-01-07T07:10:17.511Z,867.00
2018-01-07T07:11:17.564Z,866.97
2018-01-07T07:12:17.585Z,866.92
2018-01-07T07:13:17.617Z,866.87
2018-01-07T07:14:17.657Z,866.85
2018-01-07T07:15:17.694Z,866.85
2018-01-07T07:16:17.729Z,866.86
2018-01-07T07:17:17.760Z,866.85
2018-01-07T07:18:17.797Z,866.83
2018-01-07T07:19:17.826Z,866.79
2018-01-07T07:20:17.870Z,866.76
2018-01-07T07:21:17.896Z,866.72
2018-01-07T07:22:17.935Z,866.62
2018-01-07T07:23:17.962Z,866.67
2018-01-07T07:24:17.996Z,866.60
2018-01-07T07:25:18.038Z,866.61
2018-01-07T07:26:18.077Z,866.59
2018-01-07T07:27:18.116Z,866.66
2018-01-07T07:28:19.186Z,866.59
2018-01-07T07:29:18.651Z,866.56
2018-01-07T07:30:18.524Z,866.58
2018-01-07T07:31:18.232Z,866.58
2018-01-07T07:32:18.280Z,866.53
2018-01-07T07:33:18.300Z,866.52
2018-01-07T07:34:18.349Z,866.50
2018-01-07T07:35:18.584Z,866.40
2018-01-07T07:36:18.416Z,866.37
2018-01-07T07:37:18.453Z,866.37
2018-01-07T07:38:18.775Z,866.40
2018-01-07T07:39:18.519Z,866.32
2018-01-07T07:40:18.554Z,866.34
2018-01-07T07:41:18.573Z,866.34
2018-01-07T07:42:19.152Z,866.31
2018-01-07T07:43:18.654Z,866.27
2018-01-07T07:44:18.692Z,866.34
2018-01-07T07:45:18.739Z,866.36
2018-01-07T07:46:18.740Z,866.34
2018-01-07T07:47:18.772Z,866.34
2018-01-07T07:48:18.835Z,866.31
2018-01-07T07:49:18.854Z,866.31
2018-01-07T07:50:18.882Z,866.24
2018-01-07T07:51:19.126Z,866.23
2018-01-07T07:52:18.946Z,866.23
2018-01-07T07:53:18.993Z,866.20
2018-01-07T07:54:19.022Z,866.18
2018-01-07T07:55:19.059Z,866.14
2018-01-07T07:57:19.126Z,866.16
2018-01-07T07:58:19.146Z,866.16
2018-01-07T07:59:19.210Z,866.21
2018-01-07T08:00:19.222Z,866.18
2018-01-07T08:01:19.244Z,866.14
2018-01-07T08:02:19.305Z,866.09
2018-01-07T08:03:19.319Z,866.02
2018-01-07T08:04:19.354Z,866.00
2018-01-07T08:05:19.401Z,865.99
2018-01-07T08:06:19.425Z,865.95
2018-01-07T08:07:19.451Z,865.95
2018-01-07T08:08:19.695Z,865.92
2018-01-07T08:09:19.523Z,865.90
2018-01-07T08:10:19.544Z,865.89
2018-01-07T08:11:19.578Z,865.90
2018-01-07T08:12:19.619Z,865.89
2018-01-07T08:13:19.656Z,865.90
2018-01-07T08:14:19.684Z,865.88
2018-01-07T08:15:19.732Z,865.88
2018-01-07T08:16:19.748Z,865.90
2018-01-07T08:17:19.783Z,865.90
2018-01-07T08:18:19.840Z,865.84
2018-01-07T08:19:21.051Z,865.82
2018-01-07T08:20:19.881Z,865.84
2018-01-07T08:21:19.939Z,865.80
2018-01-07T08:22:19.958Z,865.81
2018-01-07T08:23:19.979Z,865.75
2018-01-07T08:24:20.039Z,865.77
2018-01-07T08:25:20.048Z,865.76
2018-01-07T08:26:20.084Z,865.73
2018-01-07T08:27:20.115Z,865.70
2018-01-07T08:28:20.208Z,865.72
2018-01-07T08:29:20.182Z,865.74
2018-01-07T08:30:20.219Z,865.71
2018-01-07T08:31:20.461Z,865.66
2018-01-07T08:32:20.286Z,865.65
2018-01-07T08:33:20.322Z,865.64
2018-01-07T08:34:20.359Z,865.62
2018-01-07T08:35:20.395Z,865.63
2018-01-07T08:36:20.416Z,865.61
2018-01-07T08:37:20.448Z,865.61
2018-01-07T08:38:20.513Z,865.61
2018-01-07T08:39:20.520Z,865.54
2018-01-07T08:40:20.555Z,865.55
2018-01-07T08:41:20.590Z,865.54
2018-01-07T08:42:20.610Z,865.55
2018-01-07T08:43:20.652Z,865.51
2018-01-07T08:44:20.682Z,865.52
2018-01-07T08:45:20.706Z,865.47
2018-01-07T08:46:20.741Z,865.54
2018-01-07T08:47:20.799Z,865.50
2018-01-07T08:48:20.814Z,865.55
2018-01-07T08:49:21.057Z,865.52
2018-01-07T08:50:20.891Z,865.51
2018-01-07T08:51:20.919Z,865.48
2018-01-07T08:52:21.247Z,865.50
2018-01-07T08:53:20.995Z,865.41
2018-01-07T08:54:21.005Z,865.42
2018-01-07T08:55:21.062Z,865.45
2018-01-07T08:57:21.170Z,865.49
2018-01-07T08:58:21.133Z,865.50
2018-01-07T08:59:21.172Z,865.53
2018-01-07T09:00:21.204Z,865.55
2018-01-07T09:01:21.242Z,865.50
2018-01-07T09:02:21.274Z,865.48
2018-01-07T09:03:21.394Z,865.41
2018-01-07T09:04:21.344Z,865.43
2018-01-07T09:05:21.369Z,865.44
2018-01-07T09:06:21.406Z,865.45
2018-01-07T09:07:21.457Z,865.44
2018-01-07T09:08:21.536Z,865.42
2018-01-07T09:09:21.502Z,865.42
2018-01-07T09:10:21.546Z,865.42
2018-01-07T09:11:21.882Z,865.37
2018-01-07T09:12:21.601Z,865.38
2018-01-07T09:13:21.660Z,865.36
2018-01-07T09:14:21.669Z,865.39
2018-01-07T09:15:21.700Z,865.44
2018-01-07T09:16:21.744Z,865.44
2018-01-07T09:17:21.761Z,865.40
2018-01-07T09:18:21.808Z,865.37
2018-01-07T09:19:21.830Z,865.39
2018-01-07T09:20:21.876Z,865.36
2018-01-07T09:21:21.915Z,865.36
2018-01-07T09:22:21.939Z,865.37
2018-01-07T09:23:21.974Z,865.40
2018-01-07T09:24:22.008Z,865.37
2018-01-07T09:25:22.082Z,865.42
2018-01-07T09:26:22.070Z,865.44
2018-01-07T09:27:22.093Z,865.48
2018-01-07T09:28:22.128Z,865.52
2018-01-07T09:29:22.175Z,865.52
2018-01-07T09:30:22.190Z,865.46
2018-01-07T09:31:22.229Z,865.41
2018-01-07T09:32:22.255Z,865.35
2018-01-07T09:33:22.300Z,865.36
2018-01-07T09:34:22.323Z,865.41
2018-01-07T09:35:22.357Z,865.42
2018-01-07T09:36:22.402Z,865.46
2018-01-07T09:37:22.422Z,865.42
2018-01-07T09:38:22.466Z,865.41
2018-01-07T09:39:22.715Z,865.43
2018-01-07T09:40:22.527Z,865.41
2018-01-07T09:41:22.554Z,865.49
2018-01-07T09:42:22.600Z,865.54
2018-01-07T09:43:22.627Z,865.56
2018-01-07T09:44:22.651Z,865.50
2018-01-07T09:45:22.777Z,865.50
2018-01-07T09:46:22.924Z,865.43
2018-01-07T09:47:22.767Z,865.40
2018-01-07T09:48:22.784Z,865.36
2018-01-07T09:50:22.852Z,865.42
2018-01-07T09:51:23.094Z,865.45
2018-01-07T09:52:22.917Z,865.45
2018-01-07T09:53:22.956Z,865.47
2018-01-07T09:54:22.980Z,865.48
2018-01-07T09:55:23.020Z,865.51
2018-01-07T09:56:23.059Z,865.50
2018-01-07T09:57:23.081Z,865.42
2018-01-07T09:59:23.194Z,865.44
2018-01-07T10:00:23.190Z,865.44
2018-01-07T10:01:23.214Z,865.45
2018-01-07T10:02:23.240Z,865.52
2018-01-07T10:03:23.287Z,865.56
2018-01-07T10:04:23.311Z,865.55
2018-01-07T10:05:23.345Z,865.57
2018-01-07T10:06:23.384Z,865.54
2018-01-07T10:07:23.416Z,865.53
2018-01-07T10:08:23.453Z,865.52
2018-01-07T10:09:23.481Z,865.51
2018-01-07T10:10:23.520Z,865.50
2018-01-07T10:11:23.559Z,865.44
2018-01-07T10:12:23.589Z,865.41
2018-01-07T10:13:23.604Z,865.45
2018-01-07T10:14:23.647Z,865.43
2018-01-07T10:15:23.679Z,865.47
2018-01-07T10:16:23.724Z,865.54
2018-01-07T10:17:23.753Z,865.62
2018-01-07T10:18:23.779Z,865.64
2018-01-07T10:19:23.800Z,865.61
2018-01-07T10:20:23.854Z,865.57
2018-01-07T10:21:23.921Z,865.55
2018-01-07T10:22:23.910Z,865.57
2018-01-07T10:23:23.922Z,865.59
2018-01-07T10:24:23.976Z,865.63
2018-01-07T10:25:23.992Z,865.60
2018-01-07T10:26:24.025Z,865.66
2018-01-07T10:27:24.068Z,865.62
2018-01-07T10:28:24.099Z,865.57
2018-01-07T10:29:24.133Z,865.58
2018-01-07T10:30:24.172Z,865.59
2018-01-07T10:31:24.201Z,865.60
2018-01-07T10:32:24.229Z,865.55
2018-01-07T10:33:24.281Z,865.55
2018-01-07T10:34:24.296Z,865.59
2018-01-07T10:35:24.525Z,865.57
2018-01-07T10:36:24.372Z,865.61
2018-01-07T10:37:24.389Z,865.67
2018-01-07T10:38:24.419Z,865.66
2018-01-07T10:39:24.458Z,865.67
2018-01-07T10:40:24.484Z,865.63
2018-01-07T10:41:24.524Z,865.66
2018-01-07T10:42:24.558Z,865.66
2018-01-07T10:43:24.599Z,865.65
2018-01-07T10:44:24.624Z,865.58
2018-01-07T10:45:24.657Z,865.61
2018-01-07T10:47:24.726Z,865.63
2018-01-07T10:48:25.016Z,865.68
2018-01-07T10:49:24.792Z,865.63
2018-01-07T10:50:24.824Z,865.68
2018-01-07T10:51:24.852Z,865.71
2018-01-07T10:52:24.883Z,865.70
2018-01-07T10:53:24.925Z,865.73
2018-01-07T10:54:25.167Z,865.69
2018-01-07T10:55:24.989Z,865.69
2018-01-07T10:56:25.019Z,865.69
2018-01-07T10:57:25.350Z,865.68
2018-01-07T10:58:25.092Z,865.72
2018-01-07T10:59:25.117Z,865.79
2018-01-07T11:00:25.168Z,865.82
2018-01-07T11:01:25.174Z,865.82
2018-01-07T11:02:25.205Z,865.88
2018-01-07T11:03:25.264Z,865.88
2018-01-07T11:04:25.274Z,865.94
2018-01-07T11:05:25.318Z,865.90
2018-01-07T11:06:25.360Z,865.90
2018-01-07T11:07:25.373Z,865.87
2018-01-07T11:08:25.406Z,865.88
2018-01-07T11:09:25.446Z,865.89
2018-01-07T11:10:25.476Z,865.92
2018-01-07T11:11:25.500Z,865.91
2018-01-07T11:12:25.540Z,865.91
2018-01-07T11:13:25.578Z,865.92
2018-01-07T11:14:25.600Z,865.91
2018-01-07T11:15:25.631Z,865.94
2018-01-07T11:16:25.677Z,865.98
2018-01-07T11:17:25.699Z,866.05
2018-01-07T11:18:25.740Z,866.03
2018-01-07T11:19:25.773Z,866.01
2018-01-07T11:20:25.795Z,866.03
2018-01-07T11:21:25.826Z,866.03
2018-01-07T11:22:25.934Z,866.04
2018-01-07T11:23:25.915Z,866.02
2018-01-07T11:24:25.942Z,866.05
2018-01-07T11:25:25.988Z,866.10
2018-01-07T11:26:26.000Z,866.04
2018-01-07T11:27:26.056Z,866.01
2018-01-07T11:28:26.274Z,866.05
2018-01-07T11:29:26.154Z,866.09
2018-01-07T11:30:26.126Z,866.09
2018-01-07T11:31:26.174Z,866.14
2018-01-07T11:32:26.213Z,866.13
2018-01-07T11:33:26.234Z,866.10
2018-01-07T11:34:26.270Z,866.13
2018-01-07T11:35:26.306Z,866.12
2018-01-07T11:36:26.336Z,866.18
2018-01-07T11:37:26.362Z,866.22
2018-01-07T11:38:26.400Z,866.27
2018-01-07T11:39:26.432Z,866.22
2018-01-07T11:40:26.470Z,866.20
2018-01-07T11:41:26.499Z,866.25
2018-01-07T11:42:26.524Z,866.22
2018-01-07T11:43:26.570Z,866.25
2018-01-07T11:44:26.592Z,866.33
2018-01-07T11:45:26.619Z,866.39
2018-01-07T11:46:26.667Z,866.40
2018-01-07T11:47:26.712Z,866.43
2018-01-07T11:48:26.732Z,866.42
2018-01-07T11:49:26.743Z,866.40
2018-01-07T11:50:26.789Z,866.44
2018-01-07T11:51:26.806Z,866.44
2018-01-07T11:52:26.860Z,866.50
2018-01-07T11:53:26.892Z,866.51
2018-01-07T11:54:26.910Z,866.55
2018-01-07T11:55:26.928Z,866.61
2018-01-07T11:56:26.988Z,866.62
2018-01-07T11:57:26.998Z,866.60
2018-01-07T11:58:27.047Z,866.60
2018-01-07T11:59:27.083Z,866.54
2018-01-07T12:00:27.111Z,866.56
2018-01-07T12:01:27.130Z,866.58
2018-01-07T12:02:27.165Z,866.59
2018-01-07T12:03:27.212Z,866.71
2018-01-07T12:04:27.248Z,866.75
2018-01-07T12:05:27.259Z,866.74
2018-01-07T12:06:27.293Z,866.72
2018-01-07T12:07:27.328Z,866.66
2018-01-07T12:08:27.363Z,866.61
2018-01-07T12:09:27.411Z,866.62
2018-01-07T12:10:27.724Z,866.63
2018-01-07T12:11:27.466Z,866.68
2018-01-07T12:12:27.502Z,866.72
2018-01-07T12:13:27.519Z,866.71
2018-01-07T12:14:27.564Z,866.72
2018-01-07T12:15:27.588Z,866.76
2018-01-07T12:16:27.617Z,866.77
2018-01-07T12:17:27.659Z,866.76
2018-01-07T12:18:27.683Z,866.83
2018-01-07T12:19:27.727Z,866.79
2018-01-07T12:20:27.745Z,866.76
2018-01-07T12:21:27.986Z,866.74
2018-01-07T12:22:27.836Z,866.75
2018-01-07T12:23:27.848Z,866.82
2018-01-07T12:24:28.110Z,866.81
2018-01-07T12:25:27.922Z,866.85
2018-01-07T12:26:27.951Z,866.91
2018-01-07T12:27:27.976Z,866.90
2018-01-07T12:28:28.020Z,866.96
2018-01-07T12:29:28.044Z,867.03
2018-01-07T12:30:28.076Z,867.05
2018-01-07T12:31:28.119Z,867.02
2018-01-07T12:32:28.142Z,867.04
2018-01-07T12:33:28.180Z,866.99
2018-01-07T12:34:28.220Z,866.95
2018-01-07T12:35:28.261Z,866.93